الصفحة الرئيسية
METAR-TAF:

METAR-TAF

مطار :

بونبي, مايكرونيزيا

دائرة عرض: 06-59N, خط طول: 158-12E, ارتفاع: 2 متر

مراقبة الطقس الحالي

تاريخ ووقت الإصدار 1ساعة و 32 دقيقة قبل الساعة 22:50UTC
ريح 4 عقدة من الشمال الشرقي
درجة الحرارة 30°درجة مئوية
الرطوبة 75%
ضغط 1009 hPa
الرؤية: 24.1 كم
غيوم قليلة على ارتفاع 1800 قدم
غيوم متفرقة على ارتفاع 13000 قدم
غيوم متفرقة على ارتفاع 30000 قدم

METAR: PTPN 162250Z 05004KT 15SM FEW018 SCT130 SCT300 30/25 A2980

زمن: 11:22 (00:22 UTC)

توقعات

تاريخ ووقت الإصدار 49 دقيقة قبل الساعة 23:33UTC
التوقعات صالحة من17 الساعة 00 UTC إلى 17 الساعة 24 UTC
ريح 5 عقدة من الشرق/الشمال الشرقي
الرؤية: 10 كم
غيوم قليلة على ارتفاع 1800 قدم
غيوم متفرقة على ارتفاع 4000 قدم
من 17 الساعة 1200 UTC
ريح 8 عقدة من الشرق
الرؤية: 10 كم
غيوم متفرقة على ارتفاع 2000 قدم
غيوم متفرقة على ارتفاع 4000 قدم
زخات في الجوار

TAF: PTPN 162333Z 1700/1724 06005KT P6SM FEW018 SCT040 FM171200 09008KT P6SM VCSH SCT020 SCT040

أرصاد الطقس والتوقعات من أكثر من 4000 مطار (تقارير الطقس للمطار METAR والتنبؤ بالطقس بالمطارTAF).

المحطات المتاحة هي النقط الصفراء والحمراء على الخريطة.

حرك المؤشر فوق النقطة لمعرفة اسم المحطة.

ثم انقر لمعرفة أرصاد وتوقعات الطقس.

لتغيير الخارطة: اضغط على الأزرار الخضراء مع رمز الصليب الأسود للتكبير. على الزر الأخضر مع شرطة للتصغير، أو على الأسهم الخضراء للخرائط المجاورة.


METAR-TAF: